Time;durP1;ratioP1;P1;durP2;ratioP2;P2;SDS_P1;SDS_P2;PMS_P1;PMS_P2;Temp;Humidity;BMP_temperature;BMP_pressure;BME280_temperature;BME280_humidity;BME280_pressure;Samples;Min_cycle;Max_cycle;Signal;HPM_P1;HPM_P2
2024/03/05 00:01:34;;;;;;;339.55;217.80;;;19.10;76.60;;;;;;5040290;28;20354;-65
2024/03/05 00:04:02;;;;;;;326.52;214.75;;;19.00;76.60;;;;;;5036752;28;20025;-65
2024/03/05 00:06:29;;;;;;;315.33;207.70;;;19.10;76.70;;;;;;5044770;28;20547;-65
2024/03/05 00:08:54;;;;;;;309.52;204.98;;;19.10;76.80;;;;;;5041772;28;20643;-65
2024/03/05 00:11:20;;;;;;;321.00;210.77;;;19.00;76.80;;;;;;5040581;28;20100;-64
2024/03/05 00:13:46;;;;;;;314.83;206.30;;;19.00;77.00;;;;;;5042803;28;20032;-64
2024/03/05 00:16:12;;;;;;;313.75;204.35;;;19.00;76.90;;;;;;5044600;28;20037;-64
2024/03/05 00:18:38;;;;;;;313.67;204.10;;;19.00;76.80;;;;;;5044365;28;20045;-65
2024/03/05 00:21:03;;;;;;;304.42;201.98;;;19.00;76.90;;;;;;5040165;28;20031;-64
2024/03/05 00:23:29;;;;;;;314.45;206.15;;;19.10;76.90;;;;;;5041059;28;20721;-66
2024/03/05 00:25:56;;;;;;;311.38;203.98;;;19.00;76.80;;;;;;5043655;28;20033;-66
2024/03/05 00:28:22;;;;;;;304.33;198.00;;;19.00;76.90;;;;;;5044204;28;20013;-67
2024/03/05 00:30:48;;;;;;;309.42;195.05;;;19.00;76.90;;;;;;5038156;28;20028;-64
2024/03/05 00:33:14;;;;;;;297.77;198.43;;;19.00;76.90;;;;;;5040819;28;20034;-66
2024/03/05 00:35:40;;;;;;;305.17;196.35;;;19.00;76.90;;;;;;5041242;28;20049;-65
2024/03/05 00:38:05;;;;;;;300.15;194.48;;;19.00;76.80;;;;;;5026621;28;20052;-65
2024/03/05 00:40:31;;;;;;;294.08;188.45;;;19.00;76.70;;;;;;5043746;28;20460;-66
2024/03/05 00:42:57;;;;;;;296.05;191.98;;;19.00;76.70;;;;;;5040669;28;20053;-65
2024/03/05 00:45:23;;;;;;;294.48;189.27;;;19.00;76.80;;;;;;5040700;28;20032;-65
2024/03/05 00:47:49;;;;;;;293.67;189.25;;;19.00;76.80;;;;;;5042399;28;20456;-65
2024/03/05 00:50:14;;;;;;;281.67;182.45;;;19.00;76.80;;;;;;5043600;28;20044;-66
2024/03/05 00:52:40;;;;;;;286.55;183.98;;;19.00;76.80;;;;;;5042617;28;20029;-66
2024/03/05 00:55:07;;;;;;;281.02;181.50;;;19.00;76.80;;;;;;5040654;28;20013;-65
2024/03/05 00:57:39;;;;;;;278.58;182.85;;;19.00;76.80;;;;;;5040427;28;20389;-66
2024/03/05 01:00:05;;;;;;;281.00;178.20;;;19.00;76.80;;;;;;5040454;28;20382;-66
2024/03/05 01:02:31;;;;;;;283.42;181.63;;;19.00;76.80;;;;;;5039797;28;20017;-66
2024/03/05 01:04:57;;;;;;;277.65;182.93;;;19.00;76.90;;;;;;5043213;28;20437;-66
2024/03/05 01:07:22;;;;;;;275.83;177.68;;;19.10;76.90;;;;;;5036978;28;20033;-66
2024/03/05 01:09:49;;;;;;;273.67;173.82;;;19.00;76.90;;;;;;5041741;28;20048;-65
2024/03/05 01:12:15;;;;;;;271.75;178.13;;;19.00;76.90;;;;;;5042824;28;20445;-66
2024/03/05 01:14:41;;;;;;;264.55;170.55;;;19.00;76.90;;;;;;5041690;28;20039;-66
2024/03/05 01:17:08;;;;;;;263.90;170.27;;;19.10;77.00;;;;;;5039901;28;20017;-66
2024/03/05 01:19:34;;;;;;;275.48;174.77;;;19.10;77.10;;;;;;5045666;28;20119;-65
2024/03/05 01:22:01;;;;;;;256.63;168.85;;;19.00;77.10;;;;;;5039224;28;20009;-65
2024/03/05 01:24:27;;;;;;;266.75;172.95;;;19.10;77.20;;;;;;5039897;28;20026;-65
2024/03/05 01:26:53;;;;;;;266.15;168.38;;;19.10;77.20;;;;;;5042239;28;20067;-65
2024/03/05 01:29:21;;;;;;;258.45;170.27;;;19.10;77.20;;;;;;5042636;28;20035;-65
2024/03/05 01:31:58;;;;;;;260.67;168.63;;;19.10;77.20;;;;;;5029445;28;20025;-65
2024/03/05 01:34:24;;;;;;;260.15;164.32;;;19.10;77.20;;;;;;5039533;28;20450;-66
2024/03/05 01:36:50;;;;;;;242.93;160.13;;;19.10;77.30;;;;;;5041827;28;20029;-66
2024/03/05 01:39:17;;;;;;;244.38;160.18;;;19.10;77.30;;;;;;5042859;28;20070;-66
2024/03/05 01:41:44;;;;;;;254.00;165.05;;;19.10;77.30;;;;;;5023301;28;20021;-66
2024/03/05 01:44:11;;;;;;;256.55;165.38;;;19.10;77.30;;;;;;5039495;28;20037;-66
2024/03/05 01:46:37;;;;;;;252.95;162.43;;;19.20;77.30;;;;;;5039575;28;20023;-64
2024/03/05 01:49:04;;;;;;;248.05;161.00;;;19.10;77.50;;;;;;5042915;28;20096;-65
2024/03/05 01:51:30;;;;;;;254.65;163.43;;;19.10;77.50;;;;;;5042241;28;20112;-65
2024/03/05 01:53:56;;;;;;;238.95;156.15;;;19.10;77.50;;;;;;5039886;28;20071;-65
2024/03/05 01:56:22;;;;;;;233.15;154.90;;;19.10;77.60;;;;;;5039389;28;20469;-65
2024/03/05 01:58:47;;;;;;;245.10;158.68;;;19.20;77.60;;;;;;5041742;28;20029;-65
2024/03/05 02:01:14;;;;;;;240.40;158.40;;;19.20;77.70;;;;;;5041831;28;20039;-65
2024/03/05 02:03:41;;;;;;;240.88;154.98;;;19.10;77.70;;;;;;5042013;28;20036;-65
2024/03/05 02:06:08;;;;;;;236.70;154.48;;;19.10;77.70;;;;;;5039366;28;20473;-67
2024/03/05 02:08:36;;;;;;;231.32;152.88;;;19.10;78.00;;;;;;5039234;28;20151;-67
2024/03/05 02:11:02;;;;;;;246.10;155.95;;;19.10;77.90;;;;;;5038500;28;20025;-67
2024/03/05 02:13:28;;;;;;;236.30;152.93;;;19.20;78.00;;;;;;5039191;28;20030;-66
2024/03/05 02:15:54;;;;;;;233.80;151.43;;;19.20;77.90;;;;;;5038960;28;20040;-66
2024/03/05 02:18:20;;;;;;;231.25;150.13;;;19.20;77.90;;;;;;5038883;28;20014;-66
2024/03/05 02:20:45;;;;;;;231.88;148.20;;;19.20;77.80;;;;;;5040009;28;20034;-66
2024/03/05 02:23:12;;;;;;;222.88;146.30;;;19.20;77.80;;;;;;5042408;28;20017;-66
2024/03/05 02:25:37;;;;;;;223.50;147.93;;;19.10;77.80;;;;;;5041726;28;20013;-66
2024/03/05 02:28:03;;;;;;;222.85;147.30;;;19.10;77.70;;;;;;5038981;28;20028;-65
2024/03/05 02:30:30;;;;;;;222.05;144.60;;;19.10;77.70;;;;;;5041634;28;20119;-65
2024/03/05 02:32:57;;;;;;;224.25;142.82;;;19.10;77.60;;;;;;5044962;28;20519;-65
2024/03/05 02:35:23;;;;;;;240.93;143.38;;;19.10;77.60;;;;;;5042337;28;20021;-65
2024/03/05 02:37:49;;;;;;;216.52;144.63;;;19.10;77.50;;;;;;5040285;28;20032;-65
2024/03/05 02:40:15;;;;;;;215.70;140.07;;;19.10;77.50;;;;;;5038636;28;20029;-65
2024/03/05 02:42:42;;;;;;;210.95;138.82;;;19.20;77.50;;;;;;5042351;28;20033;-64
2024/03/05 02:45:08;;;;;;;217.00;142.77;;;19.20;77.50;;;;;;5039667;28;20071;-65
2024/03/05 02:47:41;;;;;;;214.15;141.02;;;19.10;77.60;;;;;;5038852;28;20036;-65
2024/03/05 02:50:08;;;;;;;204.85;135.10;;;19.10;77.50;;;;;;5024964;28;20051;-65
2024/03/05 02:52:40;;;;;;;204.35;132.98;;;19.10;77.50;;;;;;5041792;28;20112;-66
2024/03/05 02:55:10;;;;;;;209.35;137.48;;;19.10;77.60;;;;;;5038685;28;20021;-64
2024/03/05 02:57:38;;;;;;;208.45;139.95;;;19.10;77.60;;;;;;5038698;28;20156;-63
2024/03/05 03:00:08;;;;;;;209.48;136.93;;;19.10;77.60;;;;;;5038720;28;20017;-65
2024/03/05 03:02:34;;;;;;;210.02;135.73;;;19.10;77.70;;;;;;5038556;28;20040;-65
2024/03/05 03:05:00;;;;;;;200.05;132.43;;;19.10;77.60;;;;;;5042490;28;20488;-65
2024/03/05 03:07:26;;;;;;;198.68;131.77;;;19.10;77.50;;;;;;5035273;28;20029;-65
2024/03/05 03:09:52;;;;;;;204.70;131.32;;;19.10;77.60;;;;;;5040541;28;20037;-65
2024/03/05 03:12:17;;;;;;;201.18;131.35;;;19.10;77.60;;;;;;5043933;28;20120;-65
2024/03/05 03:14:44;;;;;;;198.35;132.30;;;19.10;77.60;;;;;;5039023;28;20548;-65
2024/03/05 03:17:10;;;;;;;197.55;128.35;;;19.10;77.60;;;;;;5038445;28;20025;-65
2024/03/05 03:19:36;;;;;;;197.85;129.73;;;19.10;77.60;;;;;;5046538;28;20608;-64
2024/03/05 03:22:02;;;;;;;198.45;128.23;;;19.10;77.70;;;;;;5041471;28;20088;-66
2024/03/05 03:24:28;;;;;;;199.80;130.57;;;19.10;77.60;;;;;;5041618;28;20481;-66
2024/03/05 03:26:54;;;;;;;196.13;129.38;;;19.10;77.60;;;;;;5039291;28;20294;-66
2024/03/05 03:29:20;;;;;;;193.23;126.82;;;19.10;77.70;;;;;;5038530;28;20614;-66
2024/03/05 03:31:46;;;;;;;191.45;125.75;;;19.10;77.70;;;;;;5043753;28;20116;-66
2024/03/05 03:34:12;;;;;;;196.35;126.18;;;19.10;77.70;;;;;;5030174;28;20017;-66
2024/03/05 03:36:38;;;;;;;190.55;125.53;;;19.10;77.80;;;;;;5039255;28;20037;-64
2024/03/05 03:39:04;;;;;;;185.68;126.70;;;19.10;77.70;;;;;;5043735;28;20359;-64
2024/03/05 03:41:29;;;;;;;182.55;122.43;;;19.10;77.80;;;;;;5045447;28;20030;-66
2024/03/05 03:43:55;;;;;;;200.15;127.10;;;19.10;77.80;;;;;;5044471;28;20136;-66
2024/03/05 03:46:21;;;;;;;185.75;123.43;;;19.10;77.80;;;;;;5045330;28;20021;-66
2024/03/05 03:48:46;;;;;;;183.85;121.93;;;19.20;77.90;;;;;;5044959;28;20037;-65
2024/03/05 03:51:15;;;;;;;184.38;122.88;;;19.10;77.90;;;;;;5041244;28;20075;-66
2024/03/05 03:53:43;;;;;;;193.75;125.80;;;19.10;78.00;;;;;;5043179;28;20064;-66
2024/03/05 03:56:09;;;;;;;178.27;118.30;;;19.10;78.00;;;;;;5040692;28;20079;-65
2024/03/05 03:58:35;;;;;;;181.18;120.00;;;19.10;78.10;;;;;;5041614;28;20477;-65
2024/03/05 04:01:02;;;;;;;176.68;118.40;;;19.10;78.00;;;;;;5040740;28;20466;-65
2024/03/05 04:03:29;;;;;;;173.05;115.65;;;19.20;78.10;;;;;;5041361;28;20481;-66
2024/03/05 04:05:55;;;;;;;177.90;118.05;;;19.20;78.10;;;;;;5044004;28;20029;-65
2024/03/05 04:08:21;;;;;;;182.63;120.20;;;19.10;78.10;;;;;;5044917;28;20029;-66
2024/03/05 04:10:47;;;;;;;176.23;115.60;;;19.20;78.10;;;;;;5042380;28;20451;-65
2024/03/05 04:13:13;;;;;;;171.85;114.25;;;19.10;78.10;;;;;;5041159;28;20033;-65
2024/03/05 04:15:38;;;;;;;174.52;115.78;;;19.20;78.00;;;;;;5041427;28;20025;-65
2024/03/05 04:18:04;;;;;;;169.95;113.15;;;19.20;78.10;;;;;;5044428;28;20110;-64
2024/03/05 04:20:30;;;;;;;169.48;113.38;;;19.20;78.00;;;;;;5044131;28;20492;-64
2024/03/05 04:22:56;;;;;;;169.02;111.40;;;19.20;77.90;;;;;;5041063;28;20052;-65
2024/03/05 04:25:25;;;;;;;169.55;111.57;;;19.20;77.90;;;;;;5039252;28;20473;-65
2024/03/05 04:27:50;;;;;;;164.10;110.03;;;19.10;77.90;;;;;;5042324;28;20110;-65
2024/03/05 04:30:16;;;;;;;160.45;108.82;;;19.20;77.90;;;;;;5040787;28;20485;-64
2024/03/05 04:32:46;;;;;;;163.18;108.05;;;19.20;77.80;;;;;;5042175;28;20045;-64
2024/03/05 04:35:19;;;;;;;161.98;106.85;;;19.20;77.80;;;;;;5028180;28;20021;-64
2024/03/05 04:37:45;;;;;;;163.93;107.10;;;19.20;77.90;;;;;;5043020;28;20435;-64
2024/03/05 04:40:12;;;;;;;157.43;106.75;;;19.10;77.80;;;;;;5040948;28;20025;-65
2024/03/05 04:42:39;;;;;;;159.73;105.05;;;19.20;77.90;;;;;;5040474;28;20034;-62
2024/03/05 04:45:07;;;;;;;163.90;108.03;;;19.10;77.70;;;;;;5040150;28;20393;-65
2024/03/05 04:47:33;;;;;;;158.75;103.53;;;19.10;77.80;;;;;;5040647;28;20029;-64
2024/03/05 04:49:59;;;;;;;154.65;104.57;;;19.10;77.80;;;;;;5047001;28;20029;-64
2024/03/05 04:52:27;;;;;;;158.93;107.32;;;19.10;77.80;;;;;;5038346;28;20520;-64
2024/03/05 04:54:53;;;;;;;158.10;105.20;;;19.10;77.80;;;;;;5040360;28;20040;-63
2024/03/05 04:57:19;;;;;;;155.85;103.55;;;19.10;77.70;;;;;;5040508;28;20028;-64
2024/03/05 04:59:45;;;;;;;154.35;100.75;;;19.10;77.70;;;;;;5041338;28;20033;-65
2024/03/05 05:02:11;;;;;;;154.85;103.65;;;19.10;77.70;;;;;;5043116;28;20117;-65
2024/03/05 05:04:41;;;;;;;157.50;103.80;;;19.10;77.70;;;;;;5043640;28;20037;-63
2024/03/05 05:07:07;;;;;;;155.57;101.40;;;19.10;77.70;;;;;;5040607;28;20056;-64
2024/03/05 05:09:35;;;;;;;153.43;100.13;;;19.10;77.80;;;;;;5040253;28;20021;-64
2024/03/05 05:12:02;;;;;;;148.48;98.30;;;19.10;77.80;;;;;;5034597;28;20130;-64
2024/03/05 05:14:28;;;;;;;147.35;97.28;;;19.10;77.80;;;;;;5043264;28;20082;-65
2024/03/05 05:16:54;;;;;;;152.43;98.28;;;19.10;77.80;;;;;;5043276;28;20026;-65
2024/03/05 05:19:20;;;;;;;144.50;96.80;;;19.10;77.80;;;;;;5043347;28;20021;-65
2024/03/05 05:21:46;;;;;;;148.43;96.30;;;19.10;77.80;;;;;;5016573;28;20022;-64
2024/03/05 05:24:12;;;;;;;157.07;99.43;;;19.10;77.80;;;;;;5043403;28;20024;-64
2024/03/05 05:26:39;;;;;;;156.02;93.97;;;19.10;77.90;;;;;;5042807;28;20403;-63
2024/03/05 05:29:05;;;;;;;149.35;95.18;;;19.20;77.90;;;;;;5035381;28;20028;-65
2024/03/05 05:31:31;;;;;;;141.65;92.88;;;19.20;77.90;;;;;;5040861;28;20104;-64
2024/03/05 05:33:57;;;;;;;137.82;89.38;;;19.10;77.90;;;;;;5042832;28;20067;-64
2024/03/05 05:36:22;;;;;;;147.38;93.60;;;19.10;77.80;;;;;;5042836;28;20103;-63
2024/03/05 05:38:51;;;;;;;143.55;92.53;;;19.20;77.80;;;;;;5040075;28;20491;-63
2024/03/05 05:41:21;;;;;;;143.50;93.40;;;19.20;77.90;;;;;;5043888;28;20045;-65
2024/03/05 05:43:48;;;;;;;136.52;90.57;;;19.10;77.90;;;;;;5038276;28;20029;-64
2024/03/05 05:46:21;;;;;;;145.55;91.20;;;19.20;77.80;;;;;;5034289;28;20032;-66
2024/03/05 05:48:51;;;;;;;141.40;90.75;;;19.20;77.80;;;;;;5044332;28;20025;-65
2024/03/05 05:51:18;;;;;;;156.52;93.07;;;19.10;77.90;;;;;;5034869;28;20100;-62
2024/03/05 05:53:44;;;;;;;143.15;91.85;;;19.20;78.10;;;;;;5036248;28;20095;-64
2024/03/05 05:56:10;;;;;;;136.90;89.80;;;19.20;78.20;;;;;;5039675;28;20021;-63
2024/03/05 05:58:36;;;;;;;138.63;89.03;;;19.20;78.10;;;;;;5041360;28;20040;-63
2024/03/05 06:01:05;;;;;;;142.90;91.43;;;19.20;78.10;;;;;;5010983;28;20548;-66
2024/03/05 06:03:31;;;;;;;139.13;87.68;;;19.20;78.00;;;;;;5040127;28;20053;-62
2024/03/05 06:05:57;;;;;;;131.57;86.00;;;19.20;78.00;;;;;;5038381;28;20025;-64
2024/03/05 06:08:23;;;;;;;151.40;89.32;;;19.20;77.90;;;;;;5037943;28;20024;-65
2024/03/05 06:10:48;;;;;;;138.38;87.07;;;19.20;77.80;;;;;;5041822;28;20083;-66
2024/03/05 06:13:15;;;;;;;143.00;86.82;;;19.20;77.80;;;;;;5034986;28;20081;-66
2024/03/05 06:15:41;;;;;;;141.68;83.97;;;19.20;77.70;;;;;;5041306;28;20025;-66
2024/03/05 06:18:10;;;;;;;143.88;85.68;;;19.20;77.70;;;;;;5042050;28;20021;-65
2024/03/05 06:20:36;;;;;;;137.98;82.80;;;19.20;77.60;;;;;;5037702;28;20037;-66
2024/03/05 06:23:03;;;;;;;134.18;84.38;;;19.20;77.50;;;;;;5028645;28;20033;-67
2024/03/05 06:25:29;;;;;;;121.70;79.97;;;19.30;77.40;;;;;;5044251;28;20028;-69
2024/03/05 06:27:56;;;;;;;130.65;83.22;;;19.30;77.40;;;;;;5037278;28;20029;-67
2024/03/05 06:30:22;;;;;;;134.25;82.20;;;19.20;77.40;;;;;;5041161;28;20025;-66
2024/03/05 06:32:49;;;;;;;132.93;84.00;;;19.20;77.40;;;;;;5035009;28;20018;-67
2024/03/05 06:35:16;;;;;;;125.53;79.32;;;19.30;77.40;;;;;;5044289;28;20025;-67
2024/03/05 06:37:46;;;;;;;130.32;79.57;;;19.20;77.40;;;;;;5041664;28;20361;-66
2024/03/05 06:40:13;;;;;;;123.83;77.53;;;19.30;77.40;;;;;;5041626;28;20021;-67
2024/03/05 06:42:41;;;;;;;125.75;77.35;;;19.30;77.30;;;;;;5049504;28;20119;-66
2024/03/05 06:45:14;;;;;;;125.78;77.10;;;19.30;77.20;;;;;;5049683;28;20029;-66
2024/03/05 06:47:46;;;;;;;123.80;76.25;;;19.30;77.30;;;;;;5049856;28;20083;-65
2024/03/05 06:50:23;;;;;;;123.10;76.18;;;19.30;77.40;;;;;;5050456;28;20029;-67
2024/03/05 06:58:18;;;;;;;123.43;72.32;;;19.30;77.30;;;;;;5030167;28;20071;-66
2024/03/05 07:00:47;;;;;;;124.68;73.45;;;19.30;77.30;;;;;;5029620;28;20029;-64
2024/03/05 07:03:13;;;;;;;136.70;75.78;;;19.30;77.30;;;;;;5029980;28;20029;-64
2024/03/05 07:05:39;;;;;;;133.27;74.13;;;19.30;77.30;;;;;;5034344;28;20091;-63
2024/03/05 07:08:08;;;;;;;125.38;72.68;;;19.30;77.20;;;;;;5046338;28;20099;-64
2024/03/05 07:10:37;;;;;;;122.10;71.32;;;19.30;77.10;;;;;;5049439;28;20032;-65
2024/03/05 07:13:03;;;;;;;129.68;71.20;;;19.30;77.10;;;;;;5052216;28;20508;-64
2024/03/05 07:15:29;;;;;;;120.95;68.75;;;19.30;77.10;;;;;;5053288;28;20469;-64
2024/03/05 07:17:55;;;;;;;134.13;71.80;;;19.30;77.00;;;;;;5053174;28;20521;-65
2024/03/05 07:20:24;;;;;;;137.68;71.10;;;19.30;77.00;;;;;;5052872;28;20055;-66
2024/03/05 07:22:51;;;;;;;121.03;67.72;;;19.30;76.90;;;;;;5053093;28;20029;-66
2024/03/05 07:25:17;;;;;;;117.70;67.25;;;19.30;76.90;;;;;;5053300;28;20032;-66
2024/03/05 07:27:47;;;;;;;107.65;67.18;;;19.30;76.90;;;;;;5053331;28;20108;-64
2024/03/05 07:30:17;;;;;;;126.90;67.97;;;19.30;76.70;;;;;;5053309;28;20021;-65
2024/03/05 07:32:45;;;;;;;106.68;65.22;;;19.30;76.60;;;;;;5052694;28;20021;-65
2024/03/05 07:35:13;;;;;;;108.38;64.50;;;19.30;76.60;;;;;;5052741;28;20433;-65
2024/03/05 07:37:45;;;;;;;111.90;63.85;;;19.30;76.50;;;;;;5052902;28;20060;-66
2024/03/05 07:40:17;;;;;;;108.15;62.95;;;19.30;76.40;;;;;;5052952;28;20502;-66
2024/03/05 07:42:51;;;;;;;103.75;62.33;;;19.30;76.30;;;;;;5052655;28;20421;-66
2024/03/05 07:45:21;;;;;;;110.43;63.72;;;19.30;76.30;;;;;;5052959;28;20144;-64
2024/03/05 07:47:48;;;;;;;100.95;61.38;;;19.30;76.20;;;;;;5053308;28;20037;-65
2024/03/05 07:50:15;;;;;;;102.28;63.38;;;19.30;76.20;;;;;;5052599;28;20075;-65
2024/03/05 07:52:44;;;;;;;106.63;60.60;;;19.30;76.10;;;;;;5052557;28;20041;-65
2024/03/05 07:55:17;;;;;;;104.60;60.50;;;19.30;76.10;;;;;;5052579;28;20025;-66
2024/03/05 07:57:44;;;;;;;99.00;59.92;;;19.30;76.10;;;;;;5052201;28;20028;-65
2024/03/05 08:00:13;;;;;;;101.20;61.03;;;19.30;76.00;;;;;;5052491;28;20021;-66
2024/03/05 08:02:41;;;;;;;96.22;59.65;;;19.30;76.00;;;;;;5051911;28;20053;-66
2024/03/05 08:05:07;;;;;;;93.32;58.35;;;19.30;76.00;;;;;;5052676;28;20025;-66
2024/03/05 08:07:37;;;;;;;107.50;59.65;;;19.30;75.90;;;;;;5052498;28;20100;-66
2024/03/05 08:10:07;;;;;;;96.22;58.72;;;19.30;75.90;;;;;;5052202;28;20104;-65
2024/03/05 08:12:37;;;;;;;106.68;60.00;;;19.30;75.80;;;;;;5051347;28;20411;-66
2024/03/05 08:15:03;;;;;;;97.57;57.42;;;19.30;75.80;;;;;;5052076;28;20572;-65
2024/03/05 08:17:31;;;;;;;94.18;57.58;;;19.30;75.70;;;;;;5052007;28;20025;-66
2024/03/05 08:19:57;;;;;;;101.00;57.83;;;19.30;75.70;;;;;;5051980;28;20099;-65
2024/03/05 08:22:23;;;;;;;93.57;57.05;;;19.30;75.70;;;;;;5051252;28;20021;-64
2024/03/05 08:24:49;;;;;;;90.85;55.72;;;19.30;75.60;;;;;;5051987;28;20025;-65
2024/03/05 08:27:15;;;;;;;93.93;57.28;;;19.30;75.60;;;;;;5051968;28;20036;-65
2024/03/05 08:29:42;;;;;;;86.57;56.67;;;19.30;75.60;;;;;;5051913;28;20048;-65
2024/03/05 08:32:09;;;;;;;91.32;55.83;;;19.30;75.60;;;;;;5051380;28;20032;-65
2024/03/05 08:34:36;;;;;;;90.63;56.22;;;19.30;75.50;;;;;;5052014;28;20382;-65
2024/03/05 08:37:02;;;;;;;87.10;55.40;;;19.30;75.50;;;;;;5052198;28;20021;-65
2024/03/05 08:39:28;;;;;;;86.57;53.50;;;19.30;75.40;;;;;;5051744;28;20028;-65
2024/03/05 08:41:53;;;;;;;86.88;53.80;;;19.30;75.40;;;;;;5051003;28;20051;-66
2024/03/05 08:44:19;;;;;;;83.10;51.47;;;19.30;75.30;;;;;;5051793;28;20507;-65
2024/03/05 08:46:45;;;;;;;85.35;53.85;;;19.30;75.30;;;;;;5051612;28;20033;-65
2024/03/05 08:49:10;;;;;;;83.60;53.42;;;19.30;75.30;;;;;;5051555;28;20025;-65
2024/03/05 08:51:38;;;;;;;81.00;51.22;;;19.30;75.30;;;;;;5050802;28;20116;-65
2024/03/05 08:54:08;;;;;;;89.80;52.97;;;19.30;75.20;;;;;;5051614;28;20045;-65
2024/03/05 08:56:35;;;;;;;80.82;53.13;;;19.30;75.20;;;;;;5051486;28;20100;-66
2024/03/05 08:59:00;;;;;;;86.10;53.25;;;19.30;75.20;;;;;;5051291;28;20036;-65
2024/03/05 09:01:27;;;;;;;79.75;50.53;;;19.30;75.20;;;;;;5050351;28;20029;-65
2024/03/05 09:03:53;;;;;;;80.25;49.63;;;19.30;75.10;;;;;;5051329;28;20108;-66
2024/03/05 09:06:18;;;;;;;81.63;51.55;;;19.30;75.10;;;;;;5051231;28;20112;-66
2024/03/05 09:08:44;;;;;;;80.38;50.08;;;19.30;75.10;;;;;;5051517;28;20033;-66
2024/03/05 09:11:10;;;;;;;74.93;49.60;;;19.30;75.10;;;;;;5050250;28;20116;-65
2024/03/05 09:13:40;;;;;;;76.80;50.25;;;19.30;75.10;;;;;;5049629;28;20098;-66
2024/03/05 09:16:06;;;;;;;80.93;51.40;;;19.30;75.00;;;;;;5051070;28;20029;-65
2024/03/05 09:18:32;;;;;;;73.68;47.88;;;19.30;75.00;;;;;;5050835;28;20029;-65
2024/03/05 09:20:57;;;;;;;72.57;47.55;;;19.30;75.00;;;;;;5049953;28;20279;-65
2024/03/05 09:23:23;;;;;;;74.53;47.53;;;19.30;75.00;;;;;;5050616;28;20037;-65
2024/03/05 09:25:49;;;;;;;75.55;48.20;;;19.20;74.90;;;;;;5050993;28;20032;-65
2024/03/05 09:28:14;;;;;;;79.10;48.60;;;19.20;74.90;;;;;;5050650;28;20119;-65
2024/03/05 09:30:40;;;;;;;80.60;47.58;;;19.20;74.90;;;;;;5050248;28;20036;-64
2024/03/05 09:33:09;;;;;;;75.18;46.88;;;19.30;74.90;;;;;;5050764;28;20021;-65
2024/03/05 09:35:34;;;;;;;72.75;46.50;;;19.30;74.90;;;;;;5049956;28;20104;-64
2024/03/05 09:38:01;;;;;;;71.18;44.75;;;19.20;74.80;;;;;;5032518;28;20112;-65
2024/03/05 09:40:27;;;;;;;74.28;46.13;;;19.20;74.80;;;;;;5050461;28;20074;-65
2024/03/05 09:42:58;;;;;;;70.90;45.60;;;19.20;74.80;;;;;;5050326;28;20025;-65
2024/03/05 09:45:25;;;;;;;65.95;45.00;;;19.20;74.80;;;;;;5050778;28;20085;-65
2024/03/05 09:47:51;;;;;;;70.35;45.47;;;19.20;74.80;;;;;;5050695;28;20021;-65
2024/03/05 09:50:17;;;;;;;72.00;44.28;;;19.30;74.70;;;;;;5050202;28;20032;-65
2024/03/05 09:52:43;;;;;;;71.15;45.30;;;19.20;74.80;;;;;;5049830;28;20033;-65
2024/03/05 09:55:11;;;;;;;64.15;42.25;;;19.20;74.70;;;;;;5050571;28;20029;-66
2024/03/05 09:57:39;;;;;;;66.78;43.97;;;19.20;74.70;;;;;;5050390;28;20072;-65
2024/03/05 10:00:09;;;;;;;65.88;44.08;;;19.20;74.70;;;;;;5032689;28;20040;-65
2024/03/05 10:02:35;;;;;;;64.30;42.47;;;19.20;74.70;;;;;;5049918;28;20055;-65
2024/03/05 10:05:02;;;;;;;67.47;42.13;;;19.20;74.70;;;;;;5050278;28;20541;-65
2024/03/05 10:07:27;;;;;;;65.22;42.28;;;19.20;74.70;;;;;;5050224;28;20349;-66
2024/03/05 10:10:03;;;;;;;66.65;42.90;;;19.20;74.70;;;;;;5050669;28;20029;-65
2024/03/05 10:12:29;;;;;;;62.08;40.50;;;19.20;74.70;;;;;;5049600;28;20127;-66
2024/03/05 10:14:55;;;;;;;63.17;41.47;;;19.20;74.60;;;;;;5051892;28;20138;-65
2024/03/05 10:17:22;;;;;;;65.13;41.75;;;19.30;74.60;;;;;;5049887;28;20021;-66
2024/03/05 10:19:48;;;;;;;62.25;40.97;;;19.20;74.60;;;;;;5049862;28;20036;-65
2024/03/05 10:22:14;;;;;;;62.63;41.20;;;19.20;74.60;;;;;;5049563;28;20150;-66
2024/03/05 10:24:39;;;;;;;59.65;39.17;;;19.20;74.50;;;;;;5050090;28;20112;-65
2024/03/05 10:27:05;;;;;;;64.18;41.03;;;19.20;74.50;;;;;;5050104;28;20033;-65
2024/03/05 10:29:35;;;;;;;62.25;40.03;;;19.30;74.40;;;;;;5050300;28;20124;-66
2024/03/05 10:32:04;;;;;;;60.17;39.28;;;19.20;74.40;;;;;;5049318;28;20021;-65
2024/03/05 10:34:30;;;;;;;58.58;39.80;;;19.20;74.30;;;;;;5050184;28;20032;-66
2024/03/05 10:37:04;;;;;;;59.20;38.55;;;19.30;74.30;;;;;;5049813;28;20021;-66
2024/03/05 10:39:30;;;;;;;72.93;39.42;;;19.30;74.30;;;;;;5049708;28;20527;-65
2024/03/05 10:41:59;;;;;;;61.53;39.08;;;19.20;74.20;;;;;;5049215;28;20033;-66
2024/03/05 10:44:26;;;;;;;54.70;36.80;;;19.20;74.20;;;;;;5049656;28;20055;-66
2024/03/05 10:46:53;;;;;;;55.53;37.65;;;19.20;74.20;;;;;;5052205;28;20083;-66
2024/03/05 10:49:21;;;;;;;59.65;38.10;;;19.20;74.20;;;;;;5053757;28;20112;-66
2024/03/05 10:51:47;;;;;;;55.72;36.17;;;19.20;74.20;;;;;;5053059;28;20029;-66
2024/03/05 10:54:13;;;;;;;58.40;37.92;;;19.20;74.20;;;;;;5053563;28;20029;-65
2024/03/05 10:56:39;;;;;;;57.28;37.17;;;19.20;74.20;;;;;;5053601;28;20029;-66
2024/03/05 11:01:38;;;;;;;56.33;37.55;;;19.20;74.10;;;;;;5052747;28;20013;-66
2024/03/05 11:04:11;;;;;;;59.10;37.50;;;19.20;74.10;;;;;;5053541;28;20033;-65
2024/03/05 11:06:40;;;;;;;54.25;37.42;;;19.20;74.10;;;;;;5053536;28;20098;-66
2024/03/05 11:09:09;;;;;;;54.90;36.45;;;19.20;74.10;;;;;;5053199;28;20104;-65
2024/03/05 11:11:43;;;;;;;55.75;35.63;;;19.30;74.10;;;;;;5052301;28;20040;-65
2024/03/05 11:14:10;;;;;;;57.20;36.40;;;19.20;74.10;;;;;;5053337;28;20463;-66
2024/03/05 11:16:36;;;;;;;48.88;34.30;;;19.20;74.00;;;;;;5053191;28;20560;-66
2024/03/05 11:19:07;;;;;;;52.72;35.35;;;19.20;74.10;;;;;;5052923;28;20258;-66
2024/03/05 11:21:35;;;;;;;56.65;34.53;;;19.20;74.00;;;;;;5052274;28;20485;-66
2024/03/05 11:24:03;;;;;;;49.35;34.08;;;19.20;74.00;;;;;;5052843;28;20397;-65
2024/03/05 11:26:29;;;;;;;49.97;33.45;;;19.20;74.00;;;;;;5053099;28;20029;-66
2024/03/05 11:29:14;;;;;;;50.40;33.28;;;19.20;74.00;;;;;;5052788;28;20392;-65
2024/03/05 11:31:46;;;;;;;47.40;32.00;;;19.20;74.00;;;;;;5052048;28;20045;-66
2024/03/05 11:34:13;;;;;;;48.08;33.45;;;19.20;74.00;;;;;;5053169;28;20112;-65
2024/03/05 11:36:39;;;;;;;50.28;31.80;;;19.20;74.00;;;;;;5053796;28;20028;-66
2024/03/05 11:39:05;;;;;;;47.20;32.08;;;19.20;73.90;;;;;;5053880;28;20032;-66
2024/03/05 11:41:32;;;;;;;49.75;32.70;;;19.20;73.90;;;;;;5053109;28;20025;-65
2024/03/05 11:43:58;;;;;;;45.30;31.73;;;19.20;73.90;;;;;;5053828;28;20154;-66
2024/03/05 11:46:53;;;;;;;46.00;31.98;;;19.20;73.90;;;;;;5054047;28;20056;-66
2024/03/05 11:49:18;;;;;;;50.58;33.25;;;19.20;73.90;;;;;;5036553;28;20041;-66
2024/03/05 11:51:46;;;;;;;46.25;30.73;;;19.20;73.90;;;;;;5053303;28;20102;-66
2024/03/05 11:54:13;;;;;;;45.28;30.00;;;19.20;73.90;;;;;;5053946;28;20036;-66
2024/03/05 11:56:41;;;;;;;44.83;29.00;;;19.20;73.90;;;;;;5053525;28;20029;-66
2024/03/05 11:59:08;;;;;;;45.35;31.27;;;19.20;73.90;;;;;;5052769;28;20021;-66
2024/03/05 12:01:34;;;;;;;45.17;30.75;;;19.20;73.90;;;;;;5052792;28;20025;-65
2024/03/05 12:04:07;;;;;;;47.17;30.67;;;19.20;73.90;;;;;;5053862;28;20031;-65
2024/03/05 12:06:34;;;;;;;45.80;30.17;;;19.10;73.80;;;;;;5053641;28;20511;-65
2024/03/05 12:09:18;;;;;;;41.85;27.83;;;19.20;73.80;;;;;;5053475;28;20036;-66
2024/03/05 12:12:23;;;;;;;44.72;31.08;;;19.20;73.80;;;;;;5052627;28;20060;-65
2024/03/05 12:14:53;;;;;;;45.97;30.38;;;19.10;73.80;;;;;;4972196;28;20465;-66
2024/03/05 12:17:20;;;;;;;42.50;29.30;;;19.20;73.80;;;;;;4972695;28;20462;-65
2024/03/05 12:19:56;;;;;;;41.05;29.73;;;19.20;73.80;;;;;;4972519;28;20047;-63
2024/03/05 12:22:22;;;;;;;43.35;29.88;;;19.20;73.80;;;;;;4955530;28;20125;-65
2024/03/05 12:24:48;;;;;;;39.65;27.55;;;19.20;73.70;;;;;;4972129;28;20050;-66